sensor_id;sensor_type;location;lat;lon;timestamp;temperature;humidity
13569;DHT22;6856;51.460;7.158;2023-06-10T00:00:39;25.90;42.90
13569;DHT22;6856;51.460;7.158;2023-06-10T00:03:14;25.90;43.40
13569;DHT22;6856;51.460;7.158;2023-06-10T00:05:49;25.80;43.20
13569;DHT22;6856;51.460;7.158;2023-06-10T00:08:24;25.80;43.10
13569;DHT22;6856;51.460;7.158;2023-06-10T00:10:58;25.80;43.30
13569;DHT22;6856;51.460;7.158;2023-06-10T00:13:33;25.80;43.40
13569;DHT22;6856;51.460;7.158;2023-06-10T00:16:07;25.70;43.30
13569;DHT22;6856;51.460;7.158;2023-06-10T00:18:42;25.70;43.40
13569;DHT22;6856;51.460;7.158;2023-06-10T00:21:23;25.60;43.50
13569;DHT22;6856;51.460;7.158;2023-06-10T00:23:58;25.60;43.40
13569;DHT22;6856;51.460;7.158;2023-06-10T00:26:36;25.60;43.50
13569;DHT22;6856;51.460;7.158;2023-06-10T00:29:11;25.50;43.60
13569;DHT22;6856;51.460;7.158;2023-06-10T00:31:45;25.50;43.80
13569;DHT22;6856;51.460;7.158;2023-06-10T00:34:22;25.50;43.90
13569;DHT22;6856;51.460;7.158;2023-06-10T00:36:57;25.50;43.90
13569;DHT22;6856;51.460;7.158;2023-06-10T00:39:31;25.50;44.00
13569;DHT22;6856;51.460;7.158;2023-06-10T00:42:07;25.40;43.90
13569;DHT22;6856;51.460;7.158;2023-06-10T00:44:42;25.40;44.10
13569;DHT22;6856;51.460;7.158;2023-06-10T00:47:16;25.40;44.00
13569;DHT22;6856;51.460;7.158;2023-06-10T00:49:51;25.30;44.00
13569;DHT22;6856;51.460;7.158;2023-06-10T00:52:28;25.30;44.20
13569;DHT22;6856;51.460;7.158;2023-06-10T00:55:04;25.30;44.20
13569;DHT22;6856;51.460;7.158;2023-06-10T00:57:41;25.30;44.30
13569;DHT22;6856;51.460;7.158;2023-06-10T01:00:17;25.20;44.30
13569;DHT22;6856;51.460;7.158;2023-06-10T01:02:52;25.20;44.30
13569;DHT22;6856;51.460;7.158;2023-06-10T01:05:28;25.20;44.40
13569;DHT22;6856;51.460;7.158;2023-06-10T01:08:11;25.10;44.40
13569;DHT22;6856;51.460;7.158;2023-06-10T01:10:59;25.10;44.60
13569;DHT22;6856;51.460;7.158;2023-06-10T01:13:36;25.10;45.20
13569;DHT22;6856;51.460;7.158;2023-06-10T01:16:13;25.10;44.50
13569;DHT22;6856;51.460;7.158;2023-06-10T01:18:48;25.00;44.60
13569;DHT22;6856;51.460;7.158;2023-06-10T01:21:26;25.00;44.60
13569;DHT22;6856;51.460;7.158;2023-06-10T01:24:00;25.00;44.80
13569;DHT22;6856;51.460;7.158;2023-06-10T01:26:35;24.90;44.70
13569;DHT22;6856;51.460;7.158;2023-06-10T01:29:16;24.90;44.80
13569;DHT22;6856;51.460;7.158;2023-06-10T01:32:00;24.90;45.00
13569;DHT22;6856;51.460;7.158;2023-06-10T01:34:41;24.80;45.00
13569;DHT22;6856;51.460;7.158;2023-06-10T01:37:20;24.80;45.00
13569;DHT22;6856;51.460;7.158;2023-06-10T01:39:58;24.80;45.10
13569;DHT22;6856;51.460;7.158;2023-06-10T01:42:38;24.70;45.10
13569;DHT22;6856;51.460;7.158;2023-06-10T01:45:12;24.70;45.10
13569;DHT22;6856;51.460;7.158;2023-06-10T01:47:47;24.70;45.20
13569;DHT22;6856;51.460;7.158;2023-06-10T01:50:22;24.70;45.30
13569;DHT22;6856;51.460;7.158;2023-06-10T01:53:00;24.70;45.40
13569;DHT22;6856;51.460;7.158;2023-06-10T01:55:35;24.60;45.40
13569;DHT22;6856;51.460;7.158;2023-06-10T01:58:09;24.60;45.20
13569;DHT22;6856;51.460;7.158;2023-06-10T02:00:43;24.50;45.30
13569;DHT22;6856;51.460;7.158;2023-06-10T02:03:17;24.50;45.30
13569;DHT22;6856;51.460;7.158;2023-06-10T02:05:52;24.50;45.50
13569;DHT22;6856;51.460;7.158;2023-06-10T02:08:28;24.50;45.60
13569;DHT22;6856;51.460;7.158;2023-06-10T02:11:04;24.40;45.60
13569;DHT22;6856;51.460;7.158;2023-06-10T02:13:39;24.40;45.60
13569;DHT22;6856;51.460;7.158;2023-06-10T02:16:13;24.40;45.60
13569;DHT22;6856;51.460;7.158;2023-06-10T02:18:49;24.30;45.70
13569;DHT22;6856;51.460;7.158;2023-06-10T02:21:23;24.30;45.70
13569;DHT22;6856;51.460;7.158;2023-06-10T02:23:58;24.30;45.80
13569;DHT22;6856;51.460;7.158;2023-06-10T02:26:32;24.30;45.80
13569;DHT22;6856;51.460;7.158;2023-06-10T02:29:06;24.20;45.80
13569;DHT22;6856;51.460;7.158;2023-06-10T02:31:40;24.20;45.80
13569;DHT22;6856;51.460;7.158;2023-06-10T02:34:14;24.20;45.90
13569;DHT22;6856;51.460;7.158;2023-06-10T02:36:48;24.20;46.00
13569;DHT22;6856;51.460;7.158;2023-06-10T02:39:24;24.20;45.90
13569;DHT22;6856;51.460;7.158;2023-06-10T02:41:59;24.10;46.00
13569;DHT22;6856;51.460;7.158;2023-06-10T02:44:35;24.10;46.00
13569;DHT22;6856;51.460;7.158;2023-06-10T02:47:10;24.10;46.00
13569;DHT22;6856;51.460;7.158;2023-06-10T02:49:44;24.00;46.10
13569;DHT22;6856;51.460;7.158;2023-06-10T02:52:18;24.00;46.20
13569;DHT22;6856;51.460;7.158;2023-06-10T02:54:54;24.00;46.10
13569;DHT22;6856;51.460;7.158;2023-06-10T02:57:27;24.00;46.30
13569;DHT22;6856;51.460;7.158;2023-06-10T03:00:02;23.90;46.20
13569;DHT22;6856;51.460;7.158;2023-06-10T03:02:43;23.90;46.40
13569;DHT22;6856;51.460;7.158;2023-06-10T03:05:18;23.90;46.40
13569;DHT22;6856;51.460;7.158;2023-06-10T03:07:52;23.80;46.30
13569;DHT22;6856;51.460;7.158;2023-06-10T03:10:28;23.80;46.40
13569;DHT22;6856;51.460;7.158;2023-06-10T03:13:01;23.80;46.50
13569;DHT22;6856;51.460;7.158;2023-06-10T03:15:35;23.80;46.50
13569;DHT22;6856;51.460;7.158;2023-06-10T03:18:11;23.70;46.50
13569;DHT22;6856;51.460;7.158;2023-06-10T03:20:45;23.70;46.60
13569;DHT22;6856;51.460;7.158;2023-06-10T03:23:19;23.70;46.70
13569;DHT22;6856;51.460;7.158;2023-06-10T03:25:59;23.60;46.70
13569;DHT22;6856;51.460;7.158;2023-06-10T03:28:33;23.60;46.70
13569;DHT22;6856;51.460;7.158;2023-06-10T03:31:08;23.60;46.80
13569;DHT22;6856;51.460;7.158;2023-06-10T03:33:43;23.60;46.90
13569;DHT22;6856;51.460;7.158;2023-06-10T03:36:17;23.60;46.80
13569;DHT22;6856;51.460;7.158;2023-06-10T03:38:51;23.60;47.60
13569;DHT22;6856;51.460;7.158;2023-06-10T03:41:27;23.50;47.00
13569;DHT22;6856;51.460;7.158;2023-06-10T03:44:04;23.50;47.10
13569;DHT22;6856;51.460;7.158;2023-06-10T03:46:42;23.50;47.10
13569;DHT22;6856;51.460;7.158;2023-06-10T03:49:17;23.50;47.20
13569;DHT22;6856;51.460;7.158;2023-06-10T03:51:51;23.40;47.30
13569;DHT22;6856;51.460;7.158;2023-06-10T03:54:26;23.40;47.20
13569;DHT22;6856;51.460;7.158;2023-06-10T03:57:03;23.40;47.30
13569;DHT22;6856;51.460;7.158;2023-06-10T03:59:37;23.40;47.40
13569;DHT22;6856;51.460;7.158;2023-06-10T04:02:13;23.40;47.30
13569;DHT22;6856;51.460;7.158;2023-06-10T04:04:47;23.40;47.40
13569;DHT22;6856;51.460;7.158;2023-06-10T04:07:22;23.30;47.60
13569;DHT22;6856;51.460;7.158;2023-06-10T04:09:57;23.30;47.60
13569;DHT22;6856;51.460;7.158;2023-06-10T04:12:33;23.30;47.70
13569;DHT22;6856;51.460;7.158;2023-06-10T04:15:08;23.30;47.90
13569;DHT22;6856;51.460;7.158;2023-06-10T04:17:42;23.30;47.90
13569;DHT22;6856;51.460;7.158;2023-06-10T04:20:16;23.20;47.90
13569;DHT22;6856;51.460;7.158;2023-06-10T04:22:50;23.20;48.50
13569;DHT22;6856;51.460;7.158;2023-06-10T04:25:24;23.20;47.90
13569;DHT22;6856;51.460;7.158;2023-06-10T04:28:02;23.20;47.40
13569;DHT22;6856;51.460;7.158;2023-06-10T04:30:36;23.20;48.40
13569;DHT22;6856;51.460;7.158;2023-06-10T04:33:11;22.90;48.30
13569;DHT22;6856;51.460;7.158;2023-06-10T04:35:46;23.20;48.40
13569;DHT22;6856;51.460;7.158;2023-06-10T04:38:19;23.20;48.50
13569;DHT22;6856;51.460;7.158;2023-06-10T04:40:55;23.10;47.60
13569;DHT22;6856;51.460;7.158;2023-06-10T04:43:32;23.10;48.40
13569;DHT22;6856;51.460;7.158;2023-06-10T04:46:09;23.10;48.50
13569;DHT22;6856;51.460;7.158;2023-06-10T04:48:44;23.10;48.50
13569;DHT22;6856;51.460;7.158;2023-06-10T04:51:20;23.10;48.50
13569;DHT22;6856;51.460;7.158;2023-06-10T04:53:55;23.10;48.70
13569;DHT22;6856;51.460;7.158;2023-06-10T04:56:30;23.20;48.60
13569;DHT22;6856;51.460;7.158;2023-06-10T04:59:06;23.10;48.60
13569;DHT22;6856;51.460;7.158;2023-06-10T05:01:40;23.10;49.20
13569;DHT22;6856;51.460;7.158;2023-06-10T05:04:17;23.10;48.60
13569;DHT22;6856;51.460;7.158;2023-06-10T05:06:51;23.10;48.80
13569;DHT22;6856;51.460;7.158;2023-06-10T05:09:25;23.10;48.70
13569;DHT22;6856;51.460;7.158;2023-06-10T05:11:59;23.10;48.60
13569;DHT22;6856;51.460;7.158;2023-06-10T05:14:36;23.10;48.70
13569;DHT22;6856;51.460;7.158;2023-06-10T05:17:10;23.10;48.70
13569;DHT22;6856;51.460;7.158;2023-06-10T05:19:45;23.20;49.10
13569;DHT22;6856;51.460;7.158;2023-06-10T05:22:19;23.10;48.90
13569;DHT22;6856;51.460;7.158;2023-06-10T05:24:58;23.20;48.80
13569;DHT22;6856;51.460;7.158;2023-06-10T05:27:32;23.20;48.70
13569;DHT22;6856;51.460;7.158;2023-06-10T05:30:09;23.20;48.60
13569;DHT22;6856;51.460;7.158;2023-06-10T05:32:45;23.30;48.90
13569;DHT22;6856;51.460;7.158;2023-06-10T05:35:19;23.30;48.90
13569;DHT22;6856;51.460;7.158;2023-06-10T05:37:55;23.30;49.00
13569;DHT22;6856;51.460;7.158;2023-06-10T05:40:34;23.40;48.70
13569;DHT22;6856;51.460;7.158;2023-06-10T05:43:08;23.40;48.60
13569;DHT22;6856;51.460;7.158;2023-06-10T05:45:44;23.50;48.40
13569;DHT22;6856;51.460;7.158;2023-06-10T05:48:19;23.50;49.10
13569;DHT22;6856;51.460;7.158;2023-06-10T05:50:53;23.60;48.80
13569;DHT22;6856;51.460;7.158;2023-06-10T05:53:28;23.60;48.70
13569;DHT22;6856;51.460;7.158;2023-06-10T05:56:02;23.70;48.70
13569;DHT22;6856;51.460;7.158;2023-06-10T05:58:38;23.70;48.60
13569;DHT22;6856;51.460;7.158;2023-06-10T06:01:14;23.70;48.30
13569;DHT22;6856;51.460;7.158;2023-06-10T06:03:47;23.80;48.00
13569;DHT22;6856;51.460;7.158;2023-06-10T06:06:22;23.80;48.00
13569;DHT22;6856;51.460;7.158;2023-06-10T06:08:56;23.90;48.10
13569;DHT22;6856;51.460;7.158;2023-06-10T06:11:32;23.90;47.70
13569;DHT22;6856;51.460;7.158;2023-06-10T06:14:07;23.90;47.80
13569;DHT22;6856;51.460;7.158;2023-06-10T06:16:44;24.00;47.80
13569;DHT22;6856;51.460;7.158;2023-06-10T06:19:19;24.00;48.20
13569;DHT22;6856;51.460;7.158;2023-06-10T06:21:53;24.00;47.60
13569;DHT22;6856;51.460;7.158;2023-06-10T06:24:29;24.10;47.70
13569;DHT22;6856;51.460;7.158;2023-06-10T06:27:08;24.20;47.80
13569;DHT22;6856;51.460;7.158;2023-06-10T06:29:45;24.20;47.60
13569;DHT22;6856;51.460;7.158;2023-06-10T06:32:21;24.30;47.40
13569;DHT22;6856;51.460;7.158;2023-06-10T06:34:57;24.30;47.40
13569;DHT22;6856;51.460;7.158;2023-06-10T06:37:36;24.30;47.40
13569;DHT22;6856;51.460;7.158;2023-06-10T06:40:11;24.40;47.50
13569;DHT22;6856;51.460;7.158;2023-06-10T06:42:46;24.50;47.60
13569;DHT22;6856;51.460;7.158;2023-06-10T06:45:25;24.50;47.30
13569;DHT22;6856;51.460;7.158;2023-06-10T06:48:00;24.60;47.30
13569;DHT22;6856;51.460;7.158;2023-06-10T06:50:39;24.70;47.60
13569;DHT22;6856;51.460;7.158;2023-06-10T06:53:14;24.80;47.60
13569;DHT22;6856;51.460;7.158;2023-06-10T06:55:49;24.80;47.90
13569;DHT22;6856;51.460;7.158;2023-06-10T06:58:24;24.90;47.00
13569;DHT22;6856;51.460;7.158;2023-06-10T07:01:00;25.00;47.50
13569;DHT22;6856;51.460;7.158;2023-06-10T07:03:37;25.10;46.60
13569;DHT22;6856;51.460;7.158;2023-06-10T07:06:13;25.20;47.20
13569;DHT22;6856;51.460;7.158;2023-06-10T07:08:49;25.30;47.10
13569;DHT22;6856;51.460;7.158;2023-06-10T07:11:23;25.30;46.60
13569;DHT22;6856;51.460;7.158;2023-06-10T07:14:00;25.40;46.30
13569;DHT22;6856;51.460;7.158;2023-06-10T07:16:34;25.50;46.50
13569;DHT22;6856;51.460;7.158;2023-06-10T07:19:10;25.50;46.10
13569;DHT22;6856;51.460;7.158;2023-06-10T07:21:44;25.60;46.40
13569;DHT22;6856;51.460;7.158;2023-06-10T07:24:19;25.70;46.60
13569;DHT22;6856;51.460;7.158;2023-06-10T07:26:53;25.70;46.70
13569;DHT22;6856;51.460;7.158;2023-06-10T07:29:27;25.80;46.00
13569;DHT22;6856;51.460;7.158;2023-06-10T07:32:02;25.90;45.70
13569;DHT22;6856;51.460;7.158;2023-06-10T07:34:39;26.00;45.80
13569;DHT22;6856;51.460;7.158;2023-06-10T07:37:12;26.10;45.50
13569;DHT22;6856;51.460;7.158;2023-06-10T07:39:47;26.10;45.80
13569;DHT22;6856;51.460;7.158;2023-06-10T07:42:21;26.20;45.90
13569;DHT22;6856;51.460;7.158;2023-06-10T07:44:55;26.30;45.80
13569;DHT22;6856;51.460;7.158;2023-06-10T07:47:29;26.40;46.30
13569;DHT22;6856;51.460;7.158;2023-06-10T07:50:06;26.40;46.20
13569;DHT22;6856;51.460;7.158;2023-06-10T07:52:41;26.60;46.10
13569;DHT22;6856;51.460;7.158;2023-06-10T07:55:15;26.70;45.80
13569;DHT22;6856;51.460;7.158;2023-06-10T07:57:49;26.80;45.80
13569;DHT22;6856;51.460;7.158;2023-06-10T08:00:24;26.90;45.70
13569;DHT22;6856;51.460;7.158;2023-06-10T08:02:58;27.00;45.60
13569;DHT22;6856;51.460;7.158;2023-06-10T08:05:35;27.00;45.40
13569;DHT22;6856;51.460;7.158;2023-06-10T08:08:09;27.20;45.10
13569;DHT22;6856;51.460;7.158;2023-06-10T08:10:43;27.30;44.90
13569;DHT22;6856;51.460;7.158;2023-06-10T08:13:17;27.40;44.70
13569;DHT22;6856;51.460;7.158;2023-06-10T08:15:51;27.50;44.50
13569;DHT22;6856;51.460;7.158;2023-06-10T08:18:27;27.50;44.50
13569;DHT22;6856;51.460;7.158;2023-06-10T08:21:02;27.60;43.90
13569;DHT22;6856;51.460;7.158;2023-06-10T08:23:37;27.70;43.70
13569;DHT22;6856;51.460;7.158;2023-06-10T08:26:13;27.80;43.80
13569;DHT22;6856;51.460;7.158;2023-06-10T08:28:48;27.80;43.90
13569;DHT22;6856;51.460;7.158;2023-06-10T08:31:24;28.00;44.10
13569;DHT22;6856;51.460;7.158;2023-06-10T08:34:01;28.00;43.70
13569;DHT22;6856;51.460;7.158;2023-06-10T08:36:35;28.10;44.30
13569;DHT22;6856;51.460;7.158;2023-06-10T08:39:10;28.20;44.00
13569;DHT22;6856;51.460;7.158;2023-06-10T08:41:48;28.30;43.90
13569;DHT22;6856;51.460;7.158;2023-06-10T08:44:30;28.40;44.10
13569;DHT22;6856;51.460;7.158;2023-06-10T08:47:12;28.50;44.00
13569;DHT22;6856;51.460;7.158;2023-06-10T08:49:47;28.70;44.20
13569;DHT22;6856;51.460;7.158;2023-06-10T08:52:26;28.60;43.50
13569;DHT22;6856;51.460;7.158;2023-06-10T08:55:10;28.90;43.10
13569;DHT22;6856;51.460;7.158;2023-06-10T08:57:45;29.00;43.40
13569;DHT22;6856;51.460;7.158;2023-06-10T09:00:20;29.10;43.20
13569;DHT22;6856;51.460;7.158;2023-06-10T09:02:55;29.20;43.10
13569;DHT22;6856;51.460;7.158;2023-06-10T09:05:33;29.30;43.40
13569;DHT22;6856;51.460;7.158;2023-06-10T09:08:10;29.40;43.00
13569;DHT22;6856;51.460;7.158;2023-06-10T09:10:44;29.50;43.10
13569;DHT22;6856;51.460;7.158;2023-06-10T09:13:19;29.60;43.00
13569;DHT22;6856;51.460;7.158;2023-06-10T09:15:53;29.60;42.90
13569;DHT22;6856;51.460;7.158;2023-06-10T09:18:28;29.70;42.90
13569;DHT22;6856;51.460;7.158;2023-06-10T09:21:06;29.80;43.40
13569;DHT22;6856;51.460;7.158;2023-06-10T09:23:43;30.00;43.50
13569;DHT22;6856;51.460;7.158;2023-06-10T09:26:19;30.10;43.70
13569;DHT22;6856;51.460;7.158;2023-06-10T09:29:02;30.20;43.60
13569;DHT22;6856;51.460;7.158;2023-06-10T09:31:39;30.40;42.90
13569;DHT22;6856;51.460;7.158;2023-06-10T09:34:15;30.50;43.10
13569;DHT22;6856;51.460;7.158;2023-06-10T09:36:50;30.60;42.40
13569;DHT22;6856;51.460;7.158;2023-06-10T09:39:26;30.70;42.10
13569;DHT22;6856;51.460;7.158;2023-06-10T09:42:00;30.80;42.90
13569;DHT22;6856;51.460;7.158;2023-06-10T09:44:34;30.90;42.10
13569;DHT22;6856;51.460;7.158;2023-06-10T09:47:08;31.00;42.30
13569;DHT22;6856;51.460;7.158;2023-06-10T09:49:44;31.10;41.70
13569;DHT22;6856;51.460;7.158;2023-06-10T09:52:21;31.20;42.50
13569;DHT22;6856;51.460;7.158;2023-06-10T09:55:07;31.40;42.10
13569;DHT22;6856;51.460;7.158;2023-06-10T09:57:41;31.50;41.70
13569;DHT22;6856;51.460;7.158;2023-06-10T10:00:22;31.50;41.30
13569;DHT22;6856;51.460;7.158;2023-06-10T10:02:59;31.60;40.50
13569;DHT22;6856;51.460;7.158;2023-06-10T10:05:34;31.70;40.50
13569;DHT22;6856;51.460;7.158;2023-06-10T10:08:08;31.70;40.70
13569;DHT22;6856;51.460;7.158;2023-06-10T10:10:44;31.80;40.90
13569;DHT22;6856;51.460;7.158;2023-06-10T10:13:18;31.90;40.20
13569;DHT22;6856;51.460;7.158;2023-06-10T10:15:55;32.00;40.00
13569;DHT22;6856;51.460;7.158;2023-06-10T10:18:39;32.00;40.50
13569;DHT22;6856;51.460;7.158;2023-06-10T10:21:16;32.10;40.20
13569;DHT22;6856;51.460;7.158;2023-06-10T10:24:02;32.20;40.30
13569;DHT22;6856;51.460;7.158;2023-06-10T10:26:46;32.20;39.80
13569;DHT22;6856;51.460;7.158;2023-06-10T10:29:26;32.30;39.80
13569;DHT22;6856;51.460;7.158;2023-06-10T10:32:06;32.40;40.30
13569;DHT22;6856;51.460;7.158;2023-06-10T10:34:48;32.50;39.70
13569;DHT22;6856;51.460;7.158;2023-06-10T10:37:24;32.50;39.20
13569;DHT22;6856;51.460;7.158;2023-06-10T10:40:00;32.60;39.80
13569;DHT22;6856;51.460;7.158;2023-06-10T10:42:39;32.70;39.10
13569;DHT22;6856;51.460;7.158;2023-06-10T10:45:21;32.70;39.10
13569;DHT22;6856;51.460;7.158;2023-06-10T10:47:55;32.80;39.40
13569;DHT22;6856;51.460;7.158;2023-06-10T10:50:31;33.00;39.00
13569;DHT22;6856;51.460;7.158;2023-06-10T10:53:06;33.00;39.10
13569;DHT22;6856;51.460;7.158;2023-06-10T10:55:42;33.10;39.00
13569;DHT22;6856;51.460;7.158;2023-06-10T10:58:34;33.20;39.30
13569;DHT22;6856;51.460;7.158;2023-06-10T11:01:11;33.30;38.50
13569;DHT22;6856;51.460;7.158;2023-06-10T11:03:47;33.40;38.20
13569;DHT22;6856;51.460;7.158;2023-06-10T11:06:23;33.40;38.10
13569;DHT22;6856;51.460;7.158;2023-06-10T11:08:56;33.50;38.70
13569;DHT22;6856;51.460;7.158;2023-06-10T11:11:49;33.50;38.00
13569;DHT22;6856;51.460;7.158;2023-06-10T11:14:28;33.60;38.00
13569;DHT22;6856;51.460;7.158;2023-06-10T11:17:18;33.70;37.20
13569;DHT22;6856;51.460;7.158;2023-06-10T11:19:52;33.80;38.20
13569;DHT22;6856;51.460;7.158;2023-06-10T11:22:26;33.80;37.30
13569;DHT22;6856;51.460;7.158;2023-06-10T11:25:01;33.90;36.60
13569;DHT22;6856;51.460;7.158;2023-06-10T11:27:37;33.90;36.70
13569;DHT22;6856;51.460;7.158;2023-06-10T11:30:25;34.00;36.40
13569;DHT22;6856;51.460;7.158;2023-06-10T11:32:59;34.00;35.40
13569;DHT22;6856;51.460;7.158;2023-06-10T11:35:33;34.00;36.40
13569;DHT22;6856;51.460;7.158;2023-06-10T11:38:07;34.00;36.00
13569;DHT22;6856;51.460;7.158;2023-06-10T11:40:47;34.10;36.00
13569;DHT22;6856;51.460;7.158;2023-06-10T11:43:22;34.10;35.60
13569;DHT22;6856;51.460;7.158;2023-06-10T11:45:59;34.20;35.70
13569;DHT22;6856;51.460;7.158;2023-06-10T11:48:34;34.20;35.90
13569;DHT22;6856;51.460;7.158;2023-06-10T11:51:09;34.20;36.40
13569;DHT22;6856;51.460;7.158;2023-06-10T11:53:44;34.20;35.60
13569;DHT22;6856;51.460;7.158;2023-06-10T11:56:20;34.30;35.70
13569;DHT22;6856;51.460;7.158;2023-06-10T11:58:55;34.30;35.50
13569;DHT22;6856;51.460;7.158;2023-06-10T12:01:34;34.40;36.30
13569;DHT22;6856;51.460;7.158;2023-06-10T12:04:16;34.50;35.40
13569;DHT22;6856;51.460;7.158;2023-06-10T12:06:53;34.50;35.00
13569;DHT22;6856;51.460;7.158;2023-06-10T12:09:29;34.60;35.70
13569;DHT22;6856;51.460;7.158;2023-06-10T12:12:06;34.70;35.50
13569;DHT22;6856;51.460;7.158;2023-06-10T12:15:00;34.70;35.00
13569;DHT22;6856;51.460;7.158;2023-06-10T12:17:39;34.70;35.10
13569;DHT22;6856;51.460;7.158;2023-06-10T12:20:25;34.70;35.30
13569;DHT22;6856;51.460;7.158;2023-06-10T12:23:00;34.80;34.00
13569;DHT22;6856;51.460;7.158;2023-06-10T12:25:50;34.80;34.20
13569;DHT22;6856;51.460;7.158;2023-06-10T12:28:26;34.80;33.90
13569;DHT22;6856;51.460;7.158;2023-06-10T12:31:07;34.80;33.90
13569;DHT22;6856;51.460;7.158;2023-06-10T12:33:42;34.80;33.30
13569;DHT22;6856;51.460;7.158;2023-06-10T12:36:18;34.80;33.90
13569;DHT22;6856;51.460;7.158;2023-06-10T12:39:02;34.90;34.70
13569;DHT22;6856;51.460;7.158;2023-06-10T12:41:38;34.90;34.40
13569;DHT22;6856;51.460;7.158;2023-06-10T12:44:14;34.90;34.80
13569;DHT22;6856;51.460;7.158;2023-06-10T12:46:54;34.90;34.30
13569;DHT22;6856;51.460;7.158;2023-06-10T12:49:31;35.00;33.80
13569;DHT22;6856;51.460;7.158;2023-06-10T12:52:06;35.00;34.10
13569;DHT22;6856;51.460;7.158;2023-06-10T12:54:40;35.00;33.70
13569;DHT22;6856;51.460;7.158;2023-06-10T12:57:15;35.10;34.40
13569;DHT22;6856;51.460;7.158;2023-06-10T12:59:49;35.00;34.00
13569;DHT22;6856;51.460;7.158;2023-06-10T13:02:24;35.10;34.10
13569;DHT22;6856;51.460;7.158;2023-06-10T13:05:00;35.10;33.50
13569;DHT22;6856;51.460;7.158;2023-06-10T13:07:35;35.00;33.20
13569;DHT22;6856;51.460;7.158;2023-06-10T13:10:09;35.00;33.20
13569;DHT22;6856;51.460;7.158;2023-06-10T13:12:45;35.00;34.00
13569;DHT22;6856;51.460;7.158;2023-06-10T13:15:20;35.00;33.80
13569;DHT22;6856;51.460;7.158;2023-06-10T13:17:54;35.00;33.50
13569;DHT22;6856;51.460;7.158;2023-06-10T13:20:30;34.90;33.40
13569;DHT22;6856;51.460;7.158;2023-06-10T13:23:08;35.00;33.30
13569;DHT22;6856;51.460;7.158;2023-06-10T13:25:43;34.90;34.00
13569;DHT22;6856;51.460;7.158;2023-06-10T13:28:17;35.00;34.10
13569;DHT22;6856;51.460;7.158;2023-06-10T13:30:51;35.00;34.40
13569;DHT22;6856;51.460;7.158;2023-06-10T13:33:25;35.00;33.20
13569;DHT22;6856;51.460;7.158;2023-06-10T13:36:01;35.00;33.10
13569;DHT22;6856;51.460;7.158;2023-06-10T13:38:34;35.00;33.30
13569;DHT22;6856;51.460;7.158;2023-06-10T13:41:08;35.00;32.90
13569;DHT22;6856;51.460;7.158;2023-06-10T13:43:42;35.00;33.50
13569;DHT22;6856;51.460;7.158;2023-06-10T13:46:16;35.00;33.30
13569;DHT22;6856;51.460;7.158;2023-06-10T13:48:50;35.00;32.80
13569;DHT22;6856;51.460;7.158;2023-06-10T13:51:26;35.00;32.50
13569;DHT22;6856;51.460;7.158;2023-06-10T13:53:59;35.00;32.70
13569;DHT22;6856;51.460;7.158;2023-06-10T13:56:33;35.00;32.60
13569;DHT22;6856;51.460;7.158;2023-06-10T13:59:10;35.00;33.00
13569;DHT22;6856;51.460;7.158;2023-06-10T14:01:44;35.00;32.50
13569;DHT22;6856;51.460;7.158;2023-06-10T14:04:18;34.90;32.40
13569;DHT22;6856;51.460;7.158;2023-06-10T14:06:55;34.90;32.40
13569;DHT22;6856;51.460;7.158;2023-06-10T14:09:30;34.90;32.20
13569;DHT22;6856;51.460;7.158;2023-06-10T14:12:05;34.80;32.00
13569;DHT22;6856;51.460;7.158;2023-06-10T14:14:41;34.80;32.60
13569;DHT22;6856;51.460;7.158;2023-06-10T14:17:15;34.80;32.70
13569;DHT22;6856;51.460;7.158;2023-06-10T14:19:48;34.70;32.60
13569;DHT22;6856;51.460;7.158;2023-06-10T14:22:23;34.70;32.40
13569;DHT22;6856;51.460;7.158;2023-06-10T14:24:57;34.60;32.40
13569;DHT22;6856;51.460;7.158;2023-06-10T14:27:31;34.70;32.40
13569;DHT22;6856;51.460;7.158;2023-06-10T14:30:07;34.60;32.70
13569;DHT22;6856;51.460;7.158;2023-06-10T14:32:42;34.50;32.80
13569;DHT22;6856;51.460;7.158;2023-06-10T14:35:16;34.50;32.60
13569;DHT22;6856;51.460;7.158;2023-06-10T14:37:52;34.50;32.50
13569;DHT22;6856;51.460;7.158;2023-06-10T14:40:25;34.40;32.30
13569;DHT22;6856;51.460;7.158;2023-06-10T14:43:01;34.40;32.80
13569;DHT22;6856;51.460;7.158;2023-06-10T14:45:43;34.30;32.60
13569;DHT22;6856;51.460;7.158;2023-06-10T14:48:17;34.30;33.00
13569;DHT22;6856;51.460;7.158;2023-06-10T14:50:51;34.30;32.10
13569;DHT22;6856;51.460;7.158;2023-06-10T14:53:29;34.30;32.60
13569;DHT22;6856;51.460;7.158;2023-06-10T14:56:03;34.20;32.60
13569;DHT22;6856;51.460;7.158;2023-06-10T14:58:38;34.30;33.00
13569;DHT22;6856;51.460;7.158;2023-06-10T15:01:14;34.30;32.80
13569;DHT22;6856;51.460;7.158;2023-06-10T15:03:47;34.20;32.50
13569;DHT22;6856;51.460;7.158;2023-06-10T15:06:22;34.20;32.20
13569;DHT22;6856;51.460;7.158;2023-06-10T15:08:57;34.20;32.60
13569;DHT22;6856;51.460;7.158;2023-06-10T15:11:30;34.20;32.30
13569;DHT22;6856;51.460;7.158;2023-06-10T15:14:05;34.20;32.20
13569;DHT22;6856;51.460;7.158;2023-06-10T15:16:39;34.20;32.30
13569;DHT22;6856;51.460;7.158;2023-06-10T15:19:13;34.20;32.80
13569;DHT22;6856;51.460;7.158;2023-06-10T15:21:47;34.10;32.40
13569;DHT22;6856;51.460;7.158;2023-06-10T15:24:26;34.10;32.20
13569;DHT22;6856;51.460;7.158;2023-06-10T15:27:00;34.10;32.50
13569;DHT22;6856;51.460;7.158;2023-06-10T15:29:34;34.10;32.90
13569;DHT22;6856;51.460;7.158;2023-06-10T15:32:08;34.00;32.80
13569;DHT22;6856;51.460;7.158;2023-06-10T15:34:50;34.00;32.90
13569;DHT22;6856;51.460;7.158;2023-06-10T15:37:25;33.90;32.70
13569;DHT22;6856;51.460;7.158;2023-06-10T15:40:01;33.90;32.70
13569;DHT22;6856;51.460;7.158;2023-06-10T15:42:35;33.90;32.70
13569;DHT22;6856;51.460;7.158;2023-06-10T15:45:10;33.90;33.10
13569;DHT22;6856;51.460;7.158;2023-06-10T15:47:45;33.80;33.50
13569;DHT22;6856;51.460;7.158;2023-06-10T15:50:19;33.80;32.90
13569;DHT22;6856;51.460;7.158;2023-06-10T15:52:59;33.80;33.00
13569;DHT22;6856;51.460;7.158;2023-06-10T15:55:34;33.80;32.60
13569;DHT22;6856;51.460;7.158;2023-06-10T15:58:08;33.70;33.00
13569;DHT22;6856;51.460;7.158;2023-06-10T16:00:43;33.70;32.80
13569;DHT22;6856;51.460;7.158;2023-06-10T16:03:18;33.70;32.90
13569;DHT22;6856;51.460;7.158;2023-06-10T16:05:52;33.60;32.70
13569;DHT22;6856;51.460;7.158;2023-06-10T16:08:26;33.60;33.00
13569;DHT22;6856;51.460;7.158;2023-06-10T16:11:02;33.60;33.00
13569;DHT22;6856;51.460;7.158;2023-06-10T16:13:37;33.60;33.20
13569;DHT22;6856;51.460;7.158;2023-06-10T16:16:13;33.60;33.20
13569;DHT22;6856;51.460;7.158;2023-06-10T16:18:47;33.60;33.00
13569;DHT22;6856;51.460;7.158;2023-06-10T16:21:22;33.60;33.00
13569;DHT22;6856;51.460;7.158;2023-06-10T16:23:56;33.60;33.20
13569;DHT22;6856;51.460;7.158;2023-06-10T16:26:31;33.60;33.30
13569;DHT22;6856;51.460;7.158;2023-06-10T16:29:05;33.60;32.80
13569;DHT22;6856;51.460;7.158;2023-06-10T16:31:39;33.50;33.00
13569;DHT22;6856;51.460;7.158;2023-06-10T16:34:13;33.50;32.90
13569;DHT22;6856;51.460;7.158;2023-06-10T16:36:48;33.40;32.90
13569;DHT22;6856;51.460;7.158;2023-06-10T16:39:22;33.40;33.10